sensor_id;sensor_type;location;lat;lon;timestamp;pressure;altitude;pressure_sealevel;temperature;humidity
33731;BME280;22931;48.636;9.000;2023-06-19T00:04:14;95668.53;;;24.87;39.40
33731;BME280;22931;48.636;9.000;2023-06-19T00:09:48;95681.91;;;24.91;39.54
33731;BME280;22931;48.636;9.000;2023-06-19T00:15:24;95674.03;;;24.97;38.95
33731;BME280;22931;48.636;9.000;2023-06-19T00:20:58;95668.84;;;25.02;39.59
33731;BME280;22931;48.636;9.000;2023-06-19T00:26:27;95671.13;;;25.04;39.43
33731;BME280;22931;48.636;9.000;2023-06-19T00:31:54;95675.75;;;25.03;39.69
33731;BME280;22931;48.636;9.000;2023-06-19T00:37:45;95671.88;;;25.04;38.96
33731;BME280;22931;48.636;9.000;2023-06-19T00:43:04;95678.13;;;24.88;39.70
33731;BME280;22931;48.636;9.000;2023-06-19T00:48:28;95678.22;;;24.85;39.74
33731;BME280;22931;48.636;9.000;2023-06-19T00:53:40;95680.03;;;24.75;39.80
33731;BME280;22931;48.636;9.000;2023-06-19T00:59:03;95683.78;;;24.65;40.19
33731;BME280;22931;48.636;9.000;2023-06-19T01:04:21;95699.19;;;24.52;40.87
33731;BME280;22931;48.636;9.000;2023-06-19T01:09:54;95739.97;;;24.38;40.53
33731;BME280;22931;48.636;9.000;2023-06-19T01:15:28;95738.56;;;24.34;40.36
33731;BME280;22931;48.636;9.000;2023-06-19T01:21:23;95748.22;;;24.44;39.97
33731;BME280;22931;48.636;9.000;2023-06-19T01:26:56;95778.72;;;24.53;40.46
33731;BME280;22931;48.636;9.000;2023-06-19T01:32:34;95767.66;;;24.64;40.59
33731;BME280;22931;48.636;9.000;2023-06-19T01:37:49;95770.69;;;24.66;40.49
33731;BME280;22931;48.636;9.000;2023-06-19T01:43:13;95771.66;;;24.72;40.33
33731;BME280;22931;48.636;9.000;2023-06-19T01:48:37;95772.75;;;24.74;40.96
33731;BME280;22931;48.636;9.000;2023-06-19T01:54:14;95770.91;;;24.71;41.20
33731;BME280;22931;48.636;9.000;2023-06-19T01:59:32;95760.22;;;24.68;41.29
33731;BME280;22931;48.636;9.000;2023-06-19T02:04:50;95754.22;;;24.64;41.14
33731;BME280;22931;48.636;9.000;2023-06-19T02:10:07;95754.66;;;24.62;41.12
33731;BME280;22931;48.636;9.000;2023-06-19T02:20:51;95748.38;;;24.53;41.46
33731;BME280;22931;48.636;9.000;2023-06-19T02:26:11;95760.97;;;24.56;41.74
33731;BME280;22931;48.636;9.000;2023-06-19T02:31:30;95752.25;;;24.52;41.64
33731;BME280;22931;48.636;9.000;2023-06-19T02:36:40;95768.59;;;24.45;41.89
33731;BME280;22931;48.636;9.000;2023-06-19T02:41:48;95763.41;;;24.38;41.60
33731;BME280;22931;48.636;9.000;2023-06-19T02:47:00;95768.13;;;24.34;41.96
33731;BME280;22931;48.636;9.000;2023-06-19T02:52:08;95782.19;;;24.25;41.47
33731;BME280;22931;48.636;9.000;2023-06-19T02:57:17;95795.00;;;24.21;41.98
33731;BME280;22931;48.636;9.000;2023-06-19T03:02:29;95801.97;;;24.18;42.49
33731;BME280;22931;48.636;9.000;2023-06-19T03:13:00;95808.25;;;24.12;42.63
33731;BME280;22931;48.636;9.000;2023-06-19T03:18:14;95810.69;;;24.06;42.23
33731;BME280;22931;48.636;9.000;2023-06-19T03:23:24;95819.28;;;24.01;42.69
33731;BME280;22931;48.636;9.000;2023-06-19T03:28:37;95819.03;;;23.96;42.61
33731;BME280;22931;48.636;9.000;2023-06-19T03:33:48;95810.97;;;23.96;42.52
33731;BME280;22931;48.636;9.000;2023-06-19T03:38:59;95811.81;;;23.93;42.72
33731;BME280;22931;48.636;9.000;2023-06-19T03:44:10;95818.25;;;23.95;42.64
33731;BME280;22931;48.636;9.000;2023-06-19T03:49:21;95824.41;;;23.96;42.88
33731;BME280;22931;48.636;9.000;2023-06-19T03:54:39;95828.38;;;23.91;42.75
33731;BME280;22931;48.636;9.000;2023-06-19T03:59:50;95835.00;;;23.87;43.29
33731;BME280;22931;48.636;9.000;2023-06-19T04:05:10;95833.41;;;23.89;43.78
33731;BME280;22931;48.636;9.000;2023-06-19T04:10:25;95830.53;;;23.80;43.13
33731;BME280;22931;48.636;9.000;2023-06-19T04:15:35;95834.91;;;23.74;43.10
33731;BME280;22931;48.636;9.000;2023-06-19T04:20:49;95829.22;;;23.72;43.77
33731;BME280;22931;48.636;9.000;2023-06-19T04:26:00;95816.28;;;23.67;43.41
33731;BME280;22931;48.636;9.000;2023-06-19T04:31:11;95815.69;;;23.59;43.90
33731;BME280;22931;48.636;9.000;2023-06-19T04:36:28;95820.03;;;23.53;44.16
33731;BME280;22931;48.636;9.000;2023-06-19T04:41:39;95827.16;;;23.44;44.51
33731;BME280;22931;48.636;9.000;2023-06-19T04:46:51;95820.78;;;23.38;44.26
33731;BME280;22931;48.636;9.000;2023-06-19T04:52:14;95826.16;;;23.38;44.42
33731;BME280;22931;48.636;9.000;2023-06-19T04:57:36;95824.28;;;23.35;44.80
33731;BME280;22931;48.636;9.000;2023-06-19T05:02:47;95826.63;;;23.33;44.83
33731;BME280;22931;48.636;9.000;2023-06-19T05:08:12;95833.91;;;23.36;44.66
33731;BME280;22931;48.636;9.000;2023-06-19T05:13:50;95830.78;;;23.37;44.93
33731;BME280;22931;48.636;9.000;2023-06-19T05:19:17;95834.22;;;23.54;43.52
33731;BME280;22931;48.636;9.000;2023-06-19T05:24:41;95828.03;;;23.41;45.35
33731;BME280;22931;48.636;9.000;2023-06-19T05:30:15;95832.81;;;23.49;45.71
33731;BME280;22931;48.636;9.000;2023-06-19T05:36:04;95821.91;;;23.56;45.96
33731;BME280;22931;48.636;9.000;2023-06-19T06:17:39;95864.56;;;23.87;45.95
33731;BME280;22931;48.636;9.000;2023-06-19T06:23:55;95880.88;;;23.96;45.71
33731;BME280;22931;48.636;9.000;2023-06-19T06:52:47;95888.50;;;24.29;46.33
33731;BME280;22931;48.636;9.000;2023-06-19T06:58:02;95897.59;;;24.36;46.99
33731;BME280;22931;48.636;9.000;2023-06-19T07:03:15;95909.16;;;24.49;46.85
33731;BME280;22931;48.636;9.000;2023-06-19T07:08:30;95899.03;;;24.69;47.53
33731;BME280;22931;48.636;9.000;2023-06-19T07:13:41;95909.53;;;24.79;47.34
33731;BME280;22931;48.636;9.000;2023-06-19T07:18:51;95913.13;;;24.89;47.38
33731;BME280;22931;48.636;9.000;2023-06-19T07:24:08;95920.50;;;25.01;47.77
33731;BME280;22931;48.636;9.000;2023-06-19T07:29:20;95929.34;;;25.14;46.51
33731;BME280;22931;48.636;9.000;2023-06-19T07:34:32;95937.38;;;25.30;47.10
33731;BME280;22931;48.636;9.000;2023-06-19T07:39:46;95936.47;;;25.49;46.93
33731;BME280;22931;48.636;9.000;2023-06-19T07:44:59;95939.59;;;25.61;47.12
33731;BME280;22931;48.636;9.000;2023-06-19T07:50:13;95935.19;;;25.67;46.25
33731;BME280;22931;48.636;9.000;2023-06-19T07:55:26;95936.59;;;25.71;46.30
33731;BME280;22931;48.636;9.000;2023-06-19T08:00:39;95934.34;;;25.70;45.75
33731;BME280;22931;48.636;9.000;2023-06-19T08:05:52;95928.50;;;25.71;46.24
33731;BME280;22931;48.636;9.000;2023-06-19T08:11:20;95924.81;;;25.78;45.97
33731;BME280;22931;48.636;9.000;2023-06-19T08:16:36;95930.34;;;25.87;46.41
33731;BME280;22931;48.636;9.000;2023-06-19T08:21:49;95927.75;;;25.96;46.36
33731;BME280;22931;48.636;9.000;2023-06-19T08:27:25;95918.59;;;26.18;46.05
33731;BME280;22931;48.636;9.000;2023-06-19T08:32:53;95911.72;;;26.39;46.36
33731;BME280;22931;48.636;9.000;2023-06-19T08:38:14;95905.81;;;26.66;46.01
33731;BME280;22931;48.636;9.000;2023-06-19T08:43:37;95910.69;;;26.93;45.53
33731;BME280;22931;48.636;9.000;2023-06-19T08:48:58;95916.66;;;27.09;44.68
33731;BME280;22931;48.636;9.000;2023-06-19T08:54:19;95912.00;;;27.10;44.28
33731;BME280;22931;48.636;9.000;2023-06-19T08:59:35;95915.03;;;27.12;44.22
33731;BME280;22931;48.636;9.000;2023-06-19T09:04:44;95913.34;;;27.05;44.10
33731;BME280;22931;48.636;9.000;2023-06-19T09:10:03;95915.84;;;27.00;44.39
33731;BME280;22931;48.636;9.000;2023-06-19T09:15:31;95919.75;;;26.99;44.31
33731;BME280;22931;48.636;9.000;2023-06-19T09:21:00;95916.59;;;27.00;43.94
33731;BME280;22931;48.636;9.000;2023-06-19T09:26:52;95914.22;;;27.02;44.74
33731;BME280;22931;48.636;9.000;2023-06-19T09:32:27;95899.56;;;27.12;44.72
33731;BME280;22931;48.636;9.000;2023-06-19T09:38:02;95899.22;;;27.32;44.66
33731;BME280;22931;48.636;9.000;2023-06-19T09:44:01;95903.88;;;27.53;44.43
33731;BME280;22931;48.636;9.000;2023-06-19T09:49:29;95898.38;;;27.75;44.11
33731;BME280;22931;48.636;9.000;2023-06-19T10:00:49;95882.75;;;28.19;43.39
33731;BME280;22931;48.636;9.000;2023-06-19T10:06:15;95874.81;;;28.33;42.89
33731;BME280;22931;48.636;9.000;2023-06-19T10:11:51;95883.84;;;28.48;42.66
33731;BME280;22931;48.636;9.000;2023-06-19T10:17:18;95876.19;;;28.47;42.36
33731;BME280;22931;48.636;9.000;2023-06-19T10:23:14;95871.34;;;28.51;42.69
33731;BME280;22931;48.636;9.000;2023-06-19T10:28:45;95867.91;;;28.50;42.85
33731;BME280;22931;48.636;9.000;2023-06-19T10:34:20;95864.31;;;28.62;42.59
33731;BME280;22931;48.636;9.000;2023-06-19T10:40:00;95863.84;;;28.82;41.19
33731;BME280;22931;48.636;9.000;2023-06-19T10:45:28;95861.72;;;29.04;41.83
33731;BME280;22931;48.636;9.000;2023-06-19T10:56:30;95856.63;;;29.48;41.15
33731;BME280;22931;48.636;9.000;2023-06-19T11:01:59;95856.78;;;29.54;41.66
33731;BME280;22931;48.636;9.000;2023-06-19T11:18:43;95843.72;;;29.34;41.41
33731;BME280;22931;48.636;9.000;2023-06-19T11:30:07;95846.63;;;29.21;40.43
33731;BME280;22931;48.636;9.000;2023-06-19T11:35:32;95862.75;;;29.07;41.68
33731;BME280;22931;48.636;9.000;2023-06-19T11:40:49;95852.88;;;28.86;41.63
33731;BME280;22931;48.636;9.000;2023-06-19T11:46:08;95849.56;;;28.72;41.84
33731;BME280;22931;48.636;9.000;2023-06-19T11:51:34;95848.81;;;28.72;42.84
33731;BME280;22931;48.636;9.000;2023-06-19T11:57:05;95854.97;;;28.82;42.41
33731;BME280;22931;48.636;9.000;2023-06-19T12:02:30;95839.47;;;28.91;42.21
33731;BME280;22931;48.636;9.000;2023-06-19T12:13:21;95832.78;;;29.19;41.53
33731;BME280;22931;48.636;9.000;2023-06-19T12:19:08;95831.31;;;29.51;41.68
33731;BME280;22931;48.636;9.000;2023-06-19T12:31:01;95826.47;;;29.88;40.23
33731;BME280;22931;48.636;9.000;2023-06-19T12:36:50;95831.50;;;30.04;40.30
33731;BME280;22931;48.636;9.000;2023-06-19T12:47:57;95821.72;;;30.21;39.62
33731;BME280;22931;48.636;9.000;2023-06-19T12:59:02;95815.31;;;30.33;39.53
33731;BME280;22931;48.636;9.000;2023-06-19T13:04:18;95812.94;;;30.26;41.03
33731;BME280;22931;48.636;9.000;2023-06-19T13:09:29;95810.31;;;30.17;39.64
33731;BME280;22931;48.636;9.000;2023-06-19T13:14:41;95797.94;;;30.16;39.86
33731;BME280;22931;48.636;9.000;2023-06-19T13:19:50;95790.41;;;30.11;39.72
33731;BME280;22931;48.636;9.000;2023-06-19T13:24:59;95791.38;;;30.08;39.91
33731;BME280;22931;48.636;9.000;2023-06-19T13:30:12;95791.09;;;30.21;39.08
33731;BME280;22931;48.636;9.000;2023-06-19T13:35:22;95791.63;;;30.34;39.53
33731;BME280;22931;48.636;9.000;2023-06-19T13:40:38;95785.38;;;30.42;39.09
33731;BME280;22931;48.636;9.000;2023-06-19T13:45:50;95778.56;;;30.47;39.16
33731;BME280;22931;48.636;9.000;2023-06-19T13:51:05;95771.13;;;30.47;38.63
33731;BME280;22931;48.636;9.000;2023-06-19T13:56:19;95762.91;;;30.56;38.91
33731;BME280;22931;48.636;9.000;2023-06-19T14:01:36;95766.38;;;30.71;39.07
33731;BME280;22931;48.636;9.000;2023-06-19T14:06:47;95753.91;;;30.80;38.42
33731;BME280;22931;48.636;9.000;2023-06-19T14:12:03;95741.44;;;30.88;38.49
33731;BME280;22931;48.636;9.000;2023-06-19T14:17:19;95748.38;;;30.89;38.11
33731;BME280;22931;48.636;9.000;2023-06-19T14:22:29;95745.75;;;30.80;37.93
33731;BME280;22931;48.636;9.000;2023-06-19T14:27:39;95739.78;;;30.76;38.11
33731;BME280;22931;48.636;9.000;2023-06-19T14:32:53;95738.84;;;30.79;38.28
33731;BME280;22931;48.636;9.000;2023-06-19T14:38:47;95723.63;;;30.87;38.55
33731;BME280;22931;48.636;9.000;2023-06-19T15:31:02;95690.47;;;30.97;37.20
33731;BME280;22931;48.636;9.000;2023-06-19T15:36:17;95690.38;;;30.92;37.08
33731;BME280;22931;48.636;9.000;2023-06-19T15:41:33;95693.56;;;30.90;37.41
33731;BME280;22931;48.636;9.000;2023-06-19T16:05:08;95704.84;;;31.18;36.60
33731;BME280;22931;48.636;9.000;2023-06-19T16:10:41;95700.94;;;31.04;37.16
33731;BME280;22931;48.636;9.000;2023-06-19T16:16:16;95697.97;;;30.88;36.38
33731;BME280;22931;48.636;9.000;2023-06-19T16:22:15;95697.88;;;30.82;36.31
33731;BME280;22931;48.636;9.000;2023-06-19T16:27:28;95686.34;;;30.73;36.41
33731;BME280;22931;48.636;9.000;2023-06-19T16:32:39;95684.75;;;30.95;36.95
33731;BME280;22931;48.636;9.000;2023-06-19T16:38:00;95689.63;;;30.77;37.08
33731;BME280;22931;48.636;9.000;2023-06-19T16:43:42;95704.16;;;30.74;36.65
33731;BME280;22931;48.636;9.000;2023-06-19T16:49:22;95702.38;;;30.70;36.67
33731;BME280;22931;48.636;9.000;2023-06-19T16:54:45;95706.59;;;30.71;36.63
33731;BME280;22931;48.636;9.000;2023-06-19T17:00:53;95703.31;;;30.67;37.36
33731;BME280;22931;48.636;9.000;2023-06-19T17:33:54;95711.84;;;29.22;40.86
33731;BME280;22931;48.636;9.000;2023-06-19T17:39:06;95706.59;;;29.09;40.92
33731;BME280;22931;48.636;9.000;2023-06-19T17:44:17;95706.94;;;29.02;41.42
33731;BME280;22931;48.636;9.000;2023-06-19T17:49:33;95718.66;;;29.08;41.53
33731;BME280;22931;48.636;9.000;2023-06-19T17:54:42;95720.63;;;29.08;41.48
33731;BME280;22931;48.636;9.000;2023-06-19T17:59:54;95728.28;;;29.09;41.35
33731;BME280;22931;48.636;9.000;2023-06-19T18:05:05;95728.22;;;29.18;40.90
33731;BME280;22931;48.636;9.000;2023-06-19T18:10:13;95736.53;;;29.24;40.31
33731;BME280;22931;48.636;9.000;2023-06-19T18:15:27;95737.69;;;29.32;40.43
33731;BME280;22931;48.636;9.000;2023-06-19T18:20:43;95731.50;;;29.31;40.04
33731;BME280;22931;48.636;9.000;2023-06-19T18:25:51;95725.69;;;29.24;41.03
33731;BME280;22931;48.636;9.000;2023-06-19T18:31:06;95726.59;;;29.12;40.54
33731;BME280;22931;48.636;9.000;2023-06-19T18:36:18;95719.59;;;28.96;41.48
33731;BME280;22931;48.636;9.000;2023-06-19T18:41:38;95717.88;;;28.75;41.36
33731;BME280;22931;48.636;9.000;2023-06-19T18:46:47;95718.81;;;28.54;41.61
33731;BME280;22931;48.636;9.000;2023-06-19T18:51:59;95707.84;;;28.39;41.93
33731;BME280;22931;48.636;9.000;2023-06-19T18:57:08;95702.78;;;28.23;42.24
33731;BME280;22931;48.636;9.000;2023-06-19T19:02:17;95704.41;;;28.11;42.34
33731;BME280;22931;48.636;9.000;2023-06-19T19:07:35;95712.84;;;28.04;42.46
33731;BME280;22931;48.636;9.000;2023-06-19T19:12:47;95702.59;;;27.90;42.39
33731;BME280;22931;48.636;9.000;2023-06-19T19:18:01;95709.50;;;27.82;42.36
33731;BME280;22931;48.636;9.000;2023-06-19T19:23:15;95717.94;;;27.75;42.86
33731;BME280;22931;48.636;9.000;2023-06-19T19:28:39;95731.44;;;27.75;42.31
33731;BME280;22931;48.636;9.000;2023-06-19T19:33:51;95734.91;;;27.67;42.39
33731;BME280;22931;48.636;9.000;2023-06-19T19:39:07;95734.28;;;27.63;42.36
33731;BME280;22931;48.636;9.000;2023-06-19T19:44:17;95750.97;;;27.52;42.23
33731;BME280;22931;48.636;9.000;2023-06-19T19:49:27;95743.72;;;27.40;42.70
33731;BME280;22931;48.636;9.000;2023-06-19T19:54:38;95747.56;;;27.30;42.64
33731;BME280;22931;48.636;9.000;2023-06-19T19:59:48;95749.19;;;27.18;42.75
33731;BME280;22931;48.636;9.000;2023-06-19T20:04:56;95749.00;;;27.13;42.77
33731;BME280;22931;48.636;9.000;2023-06-19T20:10:08;95751.72;;;27.13;43.21
33731;BME280;22931;48.636;9.000;2023-06-19T20:15:16;95756.94;;;27.07;43.40
33731;BME280;22931;48.636;9.000;2023-06-19T20:20:24;95758.88;;;27.07;43.07
33731;BME280;22931;48.636;9.000;2023-06-19T20:25:37;95768.03;;;27.09;43.98
33731;BME280;22931;48.636;9.000;2023-06-19T20:30:50;95775.09;;;27.07;43.49
33731;BME280;22931;48.636;9.000;2023-06-19T20:36:05;95774.75;;;26.96;43.75
33731;BME280;22931;48.636;9.000;2023-06-19T20:41:16;95764.72;;;26.74;43.17
33731;BME280;22931;48.636;9.000;2023-06-19T20:46:25;95761.84;;;26.47;43.43
33731;BME280;22931;48.636;9.000;2023-06-19T20:51:35;95770.38;;;26.24;43.45
33731;BME280;22931;48.636;9.000;2023-06-19T20:57:09;95766.84;;;26.14;44.04
33731;BME280;22931;48.636;9.000;2023-06-19T21:02:50;95770.25;;;25.93;44.54
33731;BME280;22931;48.636;9.000;2023-06-19T21:08:19;95774.81;;;25.84;44.25
33731;BME280;22931;48.636;9.000;2023-06-19T21:13:42;95765.97;;;25.71;45.19
33731;BME280;22931;48.636;9.000;2023-06-19T21:18:57;95753.06;;;25.53;44.79
33731;BME280;22931;48.636;9.000;2023-06-19T21:24:07;95745.22;;;25.33;45.11
33731;BME280;22931;48.636;9.000;2023-06-19T21:29:18;95745.31;;;25.17;45.38
33731;BME280;22931;48.636;9.000;2023-06-19T21:34:35;95728.97;;;24.99;44.93
33731;BME280;22931;48.636;9.000;2023-06-19T21:40:13;95731.75;;;24.83;45.55
33731;BME280;22931;48.636;9.000;2023-06-19T21:45:39;95746.72;;;24.84;45.68
33731;BME280;22931;48.636;9.000;2023-06-19T21:51:06;95734.13;;;24.81;46.20
33731;BME280;22931;48.636;9.000;2023-06-19T21:56:26;95743.44;;;24.64;45.37
33731;BME280;22931;48.636;9.000;2023-06-19T22:02:02;95732.34;;;24.62;45.05
33731;BME280;22931;48.636;9.000;2023-06-19T22:07:44;95724.69;;;24.48;45.96
33731;BME280;22931;48.636;9.000;2023-06-19T22:13:10;95713.06;;;24.38;45.70
33731;BME280;22931;48.636;9.000;2023-06-19T22:18:54;95702.84;;;24.46;46.56
33731;BME280;22931;48.636;9.000;2023-06-19T22:24:18;95705.63;;;24.42;46.72
33731;BME280;22931;48.636;9.000;2023-06-19T22:29:58;95689.94;;;24.41;46.52
33731;BME280;22931;48.636;9.000;2023-06-19T22:35:21;95680.97;;;24.31;46.63
33731;BME280;22931;48.636;9.000;2023-06-19T22:40:53;95682.03;;;24.21;46.23
33731;BME280;22931;48.636;9.000;2023-06-19T22:46:15;95674.56;;;24.12;46.47
33731;BME280;22931;48.636;9.000;2023-06-19T22:51:48;95667.69;;;24.11;46.63
33731;BME280;22931;48.636;9.000;2023-06-19T22:57:03;95666.19;;;24.10;46.75
33731;BME280;22931;48.636;9.000;2023-06-19T23:02:15;95680.06;;;24.09;46.94
33731;BME280;22931;48.636;9.000;2023-06-19T23:07:42;95677.59;;;24.14;46.78
33731;BME280;22931;48.636;9.000;2023-06-19T23:12:54;95666.34;;;24.03;47.36
33731;BME280;22931;48.636;9.000;2023-06-19T23:18:22;95656.75;;;24.02;46.19
33731;BME280;22931;48.636;9.000;2023-06-19T23:23:43;95650.06;;;23.82;47.25
33731;BME280;22931;48.636;9.000;2023-06-19T23:29:03;95651.53;;;23.70;47.04
33731;BME280;22931;48.636;9.000;2023-06-19T23:34:30;95646.50;;;23.56;47.30
33731;BME280;22931;48.636;9.000;2023-06-19T23:40:08;95657.59;;;23.58;47.84
33731;BME280;22931;48.636;9.000;2023-06-19T23:45:43;95662.22;;;23.57;48.44
33731;BME280;22931;48.636;9.000;2023-06-19T23:56:58;95698.63;;;23.75;48.51
